createdAt,value
2023-02-19T00:04:45.715Z,5
2023-02-19T00:05:55.732Z,6
2023-02-19T00:08:19.400Z,5
2023-02-19T00:10:26.773Z,11
2023-02-19T00:12:20.999Z,9
2023-02-19T00:14:00.591Z,5
2023-02-19T00:15:11.924Z,5
2023-02-19T00:17:07.401Z,5
2023-02-19T00:18:20.992Z,5
2023-02-19T00:20:35.575Z,5
2023-02-19T00:22:30.727Z,7
2023-02-19T00:28:22.839Z,7
2023-02-19T00:29:52.279Z,7
2023-02-19T00:33:58.030Z,13
2023-02-19T00:35:05.433Z,13
2023-02-19T00:36:26.725Z,12
2023-02-19T00:37:33.983Z,12
2023-02-19T00:40:22.447Z,9
2023-02-19T00:42:26.040Z,7
2023-02-19T00:45:13.017Z,5
2023-02-19T00:50:52.015Z,6
2023-02-19T00:52:32.661Z,10
2023-02-19T00:57:33.171Z,10
2023-02-19T00:59:01.941Z,9
2023-02-19T01:03:49.806Z,8
2023-02-19T01:06:02.752Z,8
2023-02-19T01:07:12.422Z,7
2023-02-19T01:10:26.516Z,8
2023-02-19T01:12:42.135Z,7
2023-02-19T01:21:17.493Z,5
2023-02-19T01:24:36.563Z,6
2023-02-19T01:27:39.968Z,5
2023-02-19T01:29:42.837Z,4
2023-02-19T01:32:46.080Z,6
2023-02-19T01:34:01.860Z,6
2023-02-19T01:38:52.666Z,6
2023-02-19T01:42:30.042Z,6
2023-02-19T01:46:20.581Z,6
2023-02-19T01:49:05.985Z,4
2023-02-19T01:55:07.558Z,4
2023-02-19T01:57:20.681Z,4
2023-02-19T01:58:44.709Z,5
2023-02-19T02:01:41.471Z,4
2023-02-19T02:07:46.761Z,5
2023-02-19T02:09:03.084Z,5
2023-02-19T02:10:44.363Z,5
2023-02-19T02:17:05.230Z,6
2023-02-19T02:19:14.203Z,5
2023-02-19T02:21:52.086Z,4
2023-02-19T02:24:00.344Z,4
2023-02-19T02:26:17.053Z,4
2023-02-19T02:28:56.145Z,4
2023-02-19T02:30:13.691Z,4
2023-02-19T02:31:38.502Z,5
2023-02-19T02:33:56.728Z,6
2023-02-19T02:36:04.949Z,7
2023-02-19T02:39:29.590Z,7
2023-02-19T02:40:58.658Z,6
2023-02-19T02:43:28.521Z,6
2023-02-19T02:44:53.841Z,6
2023-02-19T02:47:11.558Z,7
2023-02-19T02:48:19.056Z,8
2023-02-19T02:52:24.385Z,9
2023-02-19T02:54:29.248Z,9
2023-02-19T02:59:30.744Z,13
2023-02-19T03:03:46.658Z,10
2023-02-19T03:05:33.899Z,8
2023-02-19T03:08:24.588Z,10
2023-02-19T03:09:45.548Z,10
2023-02-19T03:12:20.751Z,10
2023-02-19T03:14:50.124Z,11
2023-02-19T03:17:13.998Z,10
2023-02-19T03:18:34.369Z,9
2023-02-19T03:21:28.299Z,11
2023-02-19T03:26:25.345Z,11
2023-02-19T03:29:59.090Z,12
2023-02-19T03:31:20.262Z,12
2023-02-19T03:35:05.828Z,10
2023-02-19T03:36:18.068Z,12
2023-02-19T03:39:28.103Z,11
2023-02-19T03:44:54.511Z,12
2023-02-19T03:46:25.459Z,14
2023-02-19T03:48:07.389Z,15
2023-02-19T03:51:02.915Z,14
2023-02-19T03:55:08.825Z,16
2023-02-19T03:58:50.236Z,14
2023-02-19T04:00:11.406Z,15
2023-02-19T04:02:27.614Z,15
2023-02-19T04:04:29.576Z,14
2023-02-19T04:10:33.729Z,16
2023-02-19T04:12:47.338Z,15
2023-02-19T04:16:31.949Z,15
2023-02-19T04:20:20.231Z,18
2023-02-19T04:23:02.851Z,16
2023-02-19T04:27:49.910Z,17
2023-02-19T04:31:19.908Z,18
2023-02-19T04:33:17.519Z,18
2023-02-19T04:36:54.123Z,20
2023-02-19T04:40:42.147Z,17
2023-02-19T04:44:48.112Z,15
2023-02-19T04:48:14.318Z,17
2023-02-19T04:50:21.972Z,17
2023-02-19T04:57:35.526Z,19
2023-02-19T05:00:06.737Z,14
2023-02-19T05:03:49.842Z,12
2023-02-19T05:07:28.383Z,12
2023-02-19T05:10:07.183Z,12
2023-02-19T05:16:35.880Z,12
2023-02-19T05:18:48.264Z,14
2023-02-19T05:22:11.355Z,15
2023-02-19T05:24:08.588Z,18
2023-02-19T05:26:52.623Z,17
2023-02-19T05:29:11.962Z,17
2023-02-19T05:31:51.833Z,16
2023-02-19T05:34:31.637Z,16
2023-02-19T05:35:42.443Z,16
2023-02-19T05:36:51.307Z,16
2023-02-19T05:45:48.583Z,22
2023-02-19T05:50:27.711Z,20
2023-02-19T05:52:41.422Z,18
2023-02-19T05:54:20.208Z,19
2023-02-19T05:56:47.740Z,17
2023-02-19T06:00:33.635Z,17
2023-02-19T06:05:01.102Z,14
2023-02-19T06:08:33.728Z,14
2023-02-19T06:12:44.425Z,12
2023-02-19T06:14:31.052Z,14
2023-02-19T06:15:38.154Z,13
2023-02-19T06:17:27.171Z,13
2023-02-19T06:19:30.933Z,15
2023-02-19T06:20:41.219Z,14
2023-02-19T06:24:48.147Z,16
2023-02-19T06:34:48.919Z,16
2023-02-19T06:37:38.010Z,33
2023-02-19T06:38:45.575Z,45
2023-02-19T06:40:16.820Z,29
2023-02-19T06:47:29.416Z,32
2023-02-19T06:49:58.669Z,16
2023-02-19T06:54:39.637Z,15
2023-02-19T06:56:54.863Z,9
2023-02-19T07:04:15.970Z,11
2023-02-19T07:07:21.934Z,12
2023-02-19T07:10:46.626Z,14
2023-02-19T07:14:31.741Z,15
2023-02-19T07:22:02.570Z,12
2023-02-19T07:23:17.604Z,10
2023-02-19T07:24:30.414Z,12
2023-02-19T07:26:52.536Z,11
2023-02-19T07:28:50.119Z,12
2023-02-19T07:30:02.659Z,11
2023-02-19T07:31:14.801Z,10
2023-02-19T07:32:22.755Z,9
2023-02-19T07:34:06.786Z,9
2023-02-19T07:35:51.634Z,10
2023-02-19T07:37:41.422Z,11
2023-02-19T07:39:47.517Z,9
2023-02-19T07:41:17.291Z,9
2023-02-19T07:42:25.898Z,9
2023-02-19T07:44:55.593Z,9
2023-02-19T07:46:07.490Z,9
2023-02-19T07:49:12.622Z,8
2023-02-19T07:50:29.798Z,8
2023-02-19T07:53:17.430Z,7
2023-02-19T07:55:18.530Z,8
2023-02-19T07:57:30.055Z,9
2023-02-19T08:00:07.332Z,10
2023-02-19T08:02:22.535Z,15
2023-02-19T08:03:39.791Z,10
2023-02-19T08:05:11.243Z,8
2023-02-19T08:07:11.328Z,11
2023-02-19T08:08:21.157Z,10
2023-02-19T08:10:13.258Z,10
2023-02-19T08:11:43.439Z,10
2023-02-19T08:12:59.147Z,10
2023-02-19T08:14:44.666Z,10
2023-02-19T08:16:33.462Z,10
2023-02-19T08:17:51.750Z,12
2023-02-19T08:20:52.243Z,13
2023-02-19T08:25:20.457Z,12
2023-02-19T08:28:59.031Z,13
2023-02-19T08:30:45.314Z,14
2023-02-19T08:32:49.169Z,16
2023-02-19T08:34:52.525Z,18
2023-02-19T08:37:21.985Z,16
2023-02-19T08:42:28.297Z,13
2023-02-19T08:43:49.787Z,13
2023-02-19T08:45:01.528Z,12
2023-02-19T08:46:57.355Z,12
2023-02-19T08:48:35.605Z,16
2023-02-19T08:49:48.287Z,30
2023-02-19T08:53:02.511Z,380
2023-02-19T08:56:08.310Z,265
2023-02-19T08:58:40.025Z,39
2023-02-19T09:01:24.683Z,19
2023-02-19T09:08:39.714Z,15
2023-02-19T09:13:00.104Z,14
2023-02-19T09:15:05.388Z,17
2023-02-19T09:16:13.723Z,19
2023-02-19T09:19:58.854Z,20
2023-02-19T09:21:42.043Z,20
2023-02-19T09:22:59.027Z,22
2023-02-19T09:24:09.549Z,23
2023-02-19T09:27:21.321Z,20
2023-02-19T09:28:44.354Z,16
2023-02-19T09:30:06.363Z,16
2023-02-19T09:31:46.076Z,21
2023-02-19T09:35:30.229Z,17
2023-02-19T09:37:16.457Z,14
2023-02-19T09:38:28.253Z,19
2023-02-19T09:40:01.233Z,11
2023-02-19T09:42:18.589Z,15
2023-02-19T09:43:39.838Z,68
2023-02-19T09:46:44.529Z,18
2023-02-19T09:49:06.034Z,28
2023-02-19T09:50:51.366Z,15
2023-02-19T09:52:55.575Z,12
2023-02-19T09:54:42.562Z,11
2023-02-19T09:58:03.412Z,21
2023-02-19T10:01:05.775Z,21
2023-02-19T10:05:08.058Z,15
2023-02-19T10:06:33.470Z,15
2023-02-19T10:10:23.114Z,15
2023-02-19T10:13:56.230Z,9
2023-02-19T10:15:26.655Z,13
2023-02-19T10:17:01.982Z,11
2023-02-19T10:18:11.213Z,11
2023-02-19T10:19:16.785Z,13
2023-02-19T10:20:30.667Z,12
2023-02-19T10:23:50.410Z,7
2023-02-19T10:25:16.651Z,9
2023-02-19T10:26:25.297Z,9
2023-02-19T10:27:40.465Z,8
2023-02-19T10:28:56.510Z,9
2023-02-19T10:30:56.223Z,9
2023-02-19T10:34:35.388Z,8
2023-02-19T10:36:00.407Z,7
2023-02-19T10:37:21.878Z,8
2023-02-19T10:39:41.690Z,9
2023-02-19T10:43:46.570Z,12
2023-02-19T10:45:01.906Z,10
2023-02-19T10:48:14.369Z,24
2023-02-19T10:50:46.921Z,74
2023-02-19T10:53:15.334Z,110
2023-02-19T10:57:27.279Z,172
2023-02-19T11:00:56.027Z,79
2023-02-19T11:04:32.273Z,18
2023-02-19T11:11:42.049Z,10
2023-02-19T11:16:30.875Z,25
2023-02-19T11:18:21.453Z,19
2023-02-19T11:33:02.437Z,4
2023-02-19T11:35:33.137Z,3
2023-02-19T11:37:27.395Z,4
2023-02-19T11:44:00.940Z,4
2023-02-19T11:46:02.822Z,5
2023-02-19T11:47:39.893Z,5
2023-02-19T11:50:51.883Z,4
2023-02-19T11:53:26.003Z,5
2023-02-19T11:58:33.196Z,5
2023-02-19T12:01:32.266Z,5
2023-02-19T12:03:27.308Z,5
2023-02-19T12:04:40.389Z,5
2023-02-19T12:05:50.885Z,6
2023-02-19T12:07:24.770Z,6
2023-02-19T12:08:42.202Z,6
2023-02-19T12:09:55.826Z,7
2023-02-19T12:11:25.998Z,6
2023-02-19T12:14:51.853Z,16
2023-02-19T12:16:05.321Z,12
2023-02-19T12:17:20.601Z,9
2023-02-19T12:19:37.772Z,6
2023-02-19T12:20:52.767Z,6
2023-02-19T12:22:07.484Z,6
2023-02-19T12:23:46.022Z,5
2023-02-19T12:25:06.009Z,7
2023-02-19T12:26:39.633Z,7
2023-02-19T12:27:56.737Z,6
2023-02-19T12:29:10.657Z,5
2023-02-19T12:30:27.962Z,6
2023-02-19T12:31:42.379Z,6
2023-02-19T12:33:35.338Z,6
2023-02-19T12:34:52.825Z,6
2023-02-19T12:36:19.414Z,8
2023-02-19T12:37:27.908Z,8
2023-02-19T12:38:47.603Z,7
2023-02-19T12:40:21.496Z,9
2023-02-19T12:41:36.650Z,15
2023-02-19T12:43:14.390Z,26
2023-02-19T12:44:23.968Z,14
2023-02-19T12:45:47.613Z,12
2023-02-19T12:47:37.665Z,11
2023-02-19T12:50:59.283Z,12
2023-02-19T12:52:18.299Z,12
2023-02-19T12:53:34.355Z,10
2023-02-19T12:56:04.328Z,13
2023-02-19T12:58:15.920Z,8
2023-02-19T13:00:28.431Z,10
2023-02-19T13:02:32.132Z,10
2023-02-19T13:03:47.821Z,10
2023-02-19T13:04:55.026Z,11
2023-02-19T13:07:16.276Z,28
2023-02-19T13:09:05.695Z,10
2023-02-19T13:10:54.844Z,100
2023-02-19T13:12:13.400Z,21
2023-02-19T13:14:26.182Z,9
2023-02-19T13:15:43.403Z,77
2023-02-19T13:16:50.967Z,84
2023-02-19T13:18:08.290Z,158
2023-02-19T13:19:38.173Z,87
2023-02-19T13:21:20.520Z,120
2023-02-19T13:22:49.380Z,69
2023-02-19T13:24:07.072Z,38
2023-02-19T13:25:20.629Z,48
2023-02-19T13:27:20.780Z,19
2023-02-19T13:28:35.627Z,21
2023-02-19T13:30:26.400Z,13
2023-02-19T13:33:13.074Z,11
2023-02-19T13:36:37.471Z,8
2023-02-19T13:39:33.387Z,6
2023-02-19T13:40:46.197Z,6
2023-02-19T13:42:43.761Z,7
2023-02-19T13:44:03.760Z,5
2023-02-19T13:45:11.298Z,6
2023-02-19T13:46:18.803Z,5
2023-02-19T13:47:41.034Z,5
2023-02-19T13:49:01.189Z,6
2023-02-19T13:50:18.409Z,6
2023-02-19T13:51:34.684Z,5
2023-02-19T13:53:02.408Z,6
2023-02-19T13:54:15.173Z,6
2023-02-19T13:55:30.381Z,6
2023-02-19T13:57:02.229Z,8
2023-02-19T13:58:39.384Z,8
2023-02-19T14:00:11.599Z,8
2023-02-19T14:03:28.884Z,9
2023-02-19T14:06:06.215Z,7
2023-02-19T14:12:04.156Z,7
2023-02-19T14:14:27.522Z,8
2023-02-19T14:32:47.390Z,8
2023-02-19T14:36:42.007Z,12
2023-02-19T14:39:40.770Z,17
2023-02-19T14:43:12.516Z,13
2023-02-19T14:47:07.813Z,10
2023-02-19T14:59:13.669Z,8
2023-02-19T15:03:34.784Z,7
2023-02-19T15:05:38.259Z,8
2023-02-19T15:06:49.819Z,7
2023-02-19T15:32:04.920Z,48
2023-02-19T15:41:27.795Z,45
2023-02-19T15:53:41.734Z,39
2023-02-19T15:57:08.075Z,37
2023-02-19T16:01:32.284Z,21
2023-02-19T16:06:31.056Z,12
2023-02-19T16:13:17.025Z,9
2023-02-19T16:28:06.392Z,9
2023-02-19T16:30:05.514Z,9
2023-02-19T16:35:18.361Z,14
2023-02-19T16:39:30.775Z,12
2023-02-19T16:42:35.528Z,18
2023-02-19T16:48:45.557Z,11
2023-02-19T16:52:07.606Z,16
2023-02-19T16:56:09.398Z,13
2023-02-19T17:02:23.100Z,16
2023-02-19T17:06:00.511Z,16
2023-02-19T17:09:14.176Z,20
2023-02-19T17:10:26.885Z,21
2023-02-19T17:12:50.074Z,15
2023-02-19T17:14:06.355Z,16
2023-02-19T17:15:52.148Z,33
2023-02-19T17:17:04.674Z,20
2023-02-19T17:18:13.237Z,17
2023-02-19T17:19:21.863Z,16
2023-02-19T17:20:49.998Z,28
2023-02-19T17:22:04.738Z,23
2023-02-19T17:24:13.459Z,23
2023-02-19T17:25:21.193Z,24
2023-02-19T17:26:31.200Z,21
2023-02-19T17:27:38.340Z,17
2023-02-19T17:28:45.755Z,17
2023-02-19T17:29:53.099Z,18
2023-02-19T17:31:57.791Z,23
2023-02-19T17:33:08.542Z,19
2023-02-19T17:34:30.883Z,38
2023-02-19T17:36:18.010Z,23
2023-02-19T17:38:58.028Z,20
2023-02-19T17:40:08.052Z,27
2023-02-19T17:44:42.673Z,18
2023-02-19T17:49:46.270Z,19
2023-02-19T17:54:40.602Z,21
2023-02-19T18:00:44.300Z,28
2023-02-19T18:08:49.832Z,31
2023-02-19T18:14:33.984Z,34
2023-02-19T18:16:03.757Z,30
2023-02-19T18:19:28.901Z,36
2023-02-19T18:20:37.345Z,137
2023-02-19T18:21:46.296Z,106
2023-02-19T18:22:53.345Z,233
2023-02-19T18:24:05.857Z,135
2023-02-19T18:25:17.087Z,49
2023-02-19T18:26:24.381Z,44
2023-02-19T18:27:32.682Z,32
2023-02-19T18:28:49.329Z,32
2023-02-19T18:29:57.072Z,35
2023-02-19T18:31:06.884Z,32
2023-02-19T18:32:20.236Z,31
2023-02-19T18:33:28.890Z,34
2023-02-19T18:34:35.966Z,28
2023-02-19T18:35:43.162Z,28
2023-02-19T18:36:54.303Z,26
2023-02-19T18:38:04.146Z,29
2023-02-19T18:39:14.750Z,28
2023-02-19T18:40:22.600Z,26
2023-02-19T18:41:40.484Z,26
2023-02-19T18:42:51.204Z,25
2023-02-19T18:44:03.661Z,26
2023-02-19T18:45:13.046Z,26
2023-02-19T18:46:20.078Z,28
2023-02-19T18:47:28.808Z,29
2023-02-19T18:49:02.777Z,29
2023-02-19T18:51:34.373Z,32
2023-02-19T18:53:34.348Z,31
2023-02-19T18:57:48.389Z,32
2023-02-19T18:59:06.101Z,34
2023-02-19T19:01:17.093Z,28
2023-02-19T19:02:33.800Z,22
2023-02-19T19:03:50.094Z,61
2023-02-19T19:05:13.502Z,56
2023-02-19T19:11:58.899Z,28
2023-02-19T19:13:37.487Z,27
2023-02-19T19:17:14.032Z,28
2023-02-19T19:18:52.794Z,52
2023-02-19T19:22:57.837Z,28
2023-02-19T19:28:41.856Z,29
2023-02-19T19:29:49.736Z,36
2023-02-19T19:31:13.844Z,32
2023-02-19T19:32:27.725Z,56
2023-02-19T19:33:36.955Z,55
2023-02-19T19:39:30.808Z,25
2023-02-19T19:41:27.201Z,21
2023-02-19T19:43:23.411Z,18
2023-02-19T19:45:09.670Z,17
2023-02-19T19:46:20.591Z,26
2023-02-19T19:49:34.515Z,32
2023-02-19T19:56:48.091Z,28
2023-02-19T19:58:44.085Z,20
2023-02-19T20:01:31.136Z,21
2023-02-19T20:02:39.248Z,18
2023-02-19T20:03:54.600Z,17
2023-02-19T20:05:10.581Z,19
2023-02-19T20:06:23.347Z,20
2023-02-19T20:08:09.974Z,16
2023-02-19T20:11:45.366Z,13
2023-02-19T20:12:58.686Z,14
2023-02-19T20:14:10.942Z,15
2023-02-19T20:15:36.256Z,14
2023-02-19T20:18:27.976Z,83
2023-02-19T20:20:32.443Z,17
2023-02-19T20:22:00.845Z,19
2023-02-19T20:23:10.718Z,16
2023-02-19T20:25:22.420Z,16
2023-02-19T20:26:30.641Z,14
2023-02-19T20:27:42.788Z,16
2023-02-19T20:28:55.939Z,16
2023-02-19T20:30:03.504Z,18
2023-02-19T20:33:10.529Z,20
2023-02-19T20:34:44.620Z,22
2023-02-19T20:36:34.152Z,53
2023-02-19T20:37:56.421Z,43
2023-02-19T20:43:18.805Z,20
2023-02-19T20:45:10.128Z,16
2023-02-19T20:48:57.364Z,15
2023-02-19T20:50:08.868Z,15
2023-02-19T20:51:30.515Z,16
2023-02-19T20:55:52.744Z,17
2023-02-19T20:57:18.144Z,17
2023-02-19T20:58:56.499Z,17
2023-02-19T21:00:26.704Z,17
2023-02-19T21:02:22.607Z,17
2023-02-19T21:04:12.923Z,15
2023-02-19T21:05:33.075Z,16
2023-02-19T21:09:54.648Z,15
2023-02-19T21:11:29.231Z,16
2023-02-19T21:13:15.437Z,16
2023-02-19T21:14:37.946Z,16
2023-02-19T21:16:51.414Z,16
2023-02-19T21:18:02.205Z,15
2023-02-19T21:20:18.173Z,22
2023-02-19T21:22:36.178Z,25
2023-02-19T21:24:46.160Z,20
2023-02-19T21:27:24.119Z,19
2023-02-19T21:29:32.285Z,17
2023-02-19T21:34:07.869Z,16
2023-02-19T21:36:03.695Z,19
2023-02-19T21:38:51.244Z,18
2023-02-19T21:40:36.369Z,16
2023-02-19T21:42:39.641Z,18
2023-02-19T21:45:58.128Z,19
2023-02-19T21:52:20.968Z,16
2023-02-19T21:53:50.170Z,17
2023-02-19T21:57:55.387Z,18
2023-02-19T22:02:01.630Z,16
2023-02-19T22:03:45.837Z,19
2023-02-19T22:11:13.122Z,20
2023-02-19T22:14:03.885Z,20
2023-02-19T22:15:36.965Z,23
2023-02-19T22:19:44.833Z,24
2023-02-19T22:21:14.180Z,23
2023-02-19T22:25:03.024Z,22
2023-02-19T22:26:20.356Z,25
2023-02-19T22:35:54.356Z,32
2023-02-19T22:41:33.194Z,30
2023-02-19T22:43:58.322Z,32
2023-02-19T22:49:13.008Z,28
2023-02-19T22:52:09.436Z,28
2023-02-19T22:53:21.304Z,34
2023-02-19T22:55:07.534Z,26
2023-02-19T22:58:26.988Z,35
2023-02-19T23:02:32.317Z,23
2023-02-19T23:06:55.764Z,18
2023-02-19T23:11:16.706Z,17
2023-02-19T23:12:28.507Z,19
2023-02-19T23:17:43.327Z,19
2023-02-19T23:19:47.180Z,20
2023-02-19T23:24:30.465Z,19
2023-02-19T23:26:14.698Z,17
2023-02-19T23:34:34.036Z,16
2023-02-19T23:35:55.290Z,16
2023-02-19T23:37:43.610Z,19
2023-02-19T23:45:12.586Z,18
2023-02-19T23:48:15.089Z,18
2023-02-19T23:52:53.504Z,17
